sensor_id;sensor_type;location;lat;lon;timestamp;temperature;humidity
20345;DHT22;10330;48.816;9.278;2023-08-06T00:01:42;16.40;99.90
20345;DHT22;10330;48.816;9.278;2023-08-06T00:04:08;16.40;99.90
20345;DHT22;10330;48.816;9.278;2023-08-06T00:06:34;16.40;99.90
20345;DHT22;10330;48.816;9.278;2023-08-06T00:09:01;16.40;99.90
20345;DHT22;10330;48.816;9.278;2023-08-06T00:11:27;16.40;99.90
20345;DHT22;10330;48.816;9.278;2023-08-06T00:13:53;16.50;99.90
20345;DHT22;10330;48.816;9.278;2023-08-06T00:16:19;16.40;99.90
20345;DHT22;10330;48.816;9.278;2023-08-06T00:18:45;16.40;99.90
20345;DHT22;10330;48.816;9.278;2023-08-06T00:21:11;16.40;99.90
20345;DHT22;10330;48.816;9.278;2023-08-06T00:23:41;16.30;99.90
20345;DHT22;10330;48.816;9.278;2023-08-06T00:26:08;16.30;99.90
20345;DHT22;10330;48.816;9.278;2023-08-06T00:28:34;16.20;99.90
20345;DHT22;10330;48.816;9.278;2023-08-06T00:31:00;16.20;99.90
20345;DHT22;10330;48.816;9.278;2023-08-06T00:33:26;16.10;99.90
20345;DHT22;10330;48.816;9.278;2023-08-06T00:35:52;16.00;99.90
20345;DHT22;10330;48.816;9.278;2023-08-06T00:38:18;15.90;99.90
20345;DHT22;10330;48.816;9.278;2023-08-06T00:40:45;15.90;99.90
20345;DHT22;10330;48.816;9.278;2023-08-06T00:43:11;15.90;99.90
20345;DHT22;10330;48.816;9.278;2023-08-06T00:45:37;15.90;99.90
20345;DHT22;10330;48.816;9.278;2023-08-06T00:48:05;15.80;99.90
20345;DHT22;10330;48.816;9.278;2023-08-06T00:50:32;15.90;99.90
20345;DHT22;10330;48.816;9.278;2023-08-06T00:52:59;15.80;99.90
20345;DHT22;10330;48.816;9.278;2023-08-06T00:55:25;15.70;99.90
20345;DHT22;10330;48.816;9.278;2023-08-06T00:57:52;15.70;99.90
20345;DHT22;10330;48.816;9.278;2023-08-06T01:00:22;15.70;99.90
20345;DHT22;10330;48.816;9.278;2023-08-06T01:02:50;15.60;99.90
20345;DHT22;10330;48.816;9.278;2023-08-06T01:05:16;15.60;99.90
20345;DHT22;10330;48.816;9.278;2023-08-06T01:07:56;15.60;99.90
20345;DHT22;10330;48.816;9.278;2023-08-06T01:13:37;15.60;99.90
20345;DHT22;10330;48.816;9.278;2023-08-06T01:16:06;15.50;99.90
20345;DHT22;10330;48.816;9.278;2023-08-06T01:18:33;15.50;99.90
20345;DHT22;10330;48.816;9.278;2023-08-06T01:20:59;15.40;99.90
20345;DHT22;10330;48.816;9.278;2023-08-06T01:23:26;15.50;99.90
20345;DHT22;10330;48.816;9.278;2023-08-06T01:31:24;15.50;99.90
20345;DHT22;10330;48.816;9.278;2023-08-06T01:33:53;15.60;99.90
20345;DHT22;10330;48.816;9.278;2023-08-06T01:36:20;15.60;99.90
20345;DHT22;10330;48.816;9.278;2023-08-06T01:38:53;15.70;99.90
20345;DHT22;10330;48.816;9.278;2023-08-06T01:41:20;15.70;99.90
20345;DHT22;10330;48.816;9.278;2023-08-06T01:43:46;15.80;99.90
20345;DHT22;10330;48.816;9.278;2023-08-06T01:46:12;15.70;99.90
20345;DHT22;10330;48.816;9.278;2023-08-06T01:48:38;15.80;99.90
20345;DHT22;10330;48.816;9.278;2023-08-06T01:51:05;15.80;99.90
20345;DHT22;10330;48.816;9.278;2023-08-06T01:53:32;15.80;99.90
20345;DHT22;10330;48.816;9.278;2023-08-06T01:55:59;15.70;99.90
20345;DHT22;10330;48.816;9.278;2023-08-06T01:58:25;15.80;99.90
20345;DHT22;10330;48.816;9.278;2023-08-06T02:00:51;15.80;99.90
20345;DHT22;10330;48.816;9.278;2023-08-06T02:03:20;15.70;99.90
20345;DHT22;10330;48.816;9.278;2023-08-06T02:05:48;15.70;99.90
20345;DHT22;10330;48.816;9.278;2023-08-06T02:08:15;15.70;99.90
20345;DHT22;10330;48.816;9.278;2023-08-06T02:10:41;15.60;99.90
20345;DHT22;10330;48.816;9.278;2023-08-06T02:13:07;15.60;99.90
20345;DHT22;10330;48.816;9.278;2023-08-06T02:15:33;15.60;99.90
20345;DHT22;10330;48.816;9.278;2023-08-06T02:18:04;15.60;99.90
20345;DHT22;10330;48.816;9.278;2023-08-06T02:20:30;15.60;99.90
20345;DHT22;10330;48.816;9.278;2023-08-06T02:22:56;15.40;99.90
20345;DHT22;10330;48.816;9.278;2023-08-06T02:25:22;15.40;99.90
20345;DHT22;10330;48.816;9.278;2023-08-06T02:27:49;15.40;99.90
20345;DHT22;10330;48.816;9.278;2023-08-06T02:30:16;15.30;99.90
20345;DHT22;10330;48.816;9.278;2023-08-06T02:32:42;15.40;99.90
20345;DHT22;10330;48.816;9.278;2023-08-06T02:35:08;15.50;99.90
20345;DHT22;10330;48.816;9.278;2023-08-06T02:37:35;15.40;99.90
20345;DHT22;10330;48.816;9.278;2023-08-06T02:40:01;15.50;99.90
20345;DHT22;10330;48.816;9.278;2023-08-06T02:42:28;15.50;99.90
20345;DHT22;10330;48.816;9.278;2023-08-06T02:44:54;15.50;99.90
20345;DHT22;10330;48.816;9.278;2023-08-06T02:47:21;15.50;99.90
20345;DHT22;10330;48.816;9.278;2023-08-06T02:49:47;15.50;99.90
20345;DHT22;10330;48.816;9.278;2023-08-06T02:52:14;15.50;99.90
20345;DHT22;10330;48.816;9.278;2023-08-06T02:54:42;15.40;99.90
20345;DHT22;10330;48.816;9.278;2023-08-06T02:57:09;15.30;99.90
20345;DHT22;10330;48.816;9.278;2023-08-06T02:59:36;15.20;99.90
20345;DHT22;10330;48.816;9.278;2023-08-06T03:02:10;15.10;99.90
20345;DHT22;10330;48.816;9.278;2023-08-06T03:05:00;15.10;99.90
20345;DHT22;10330;48.816;9.278;2023-08-06T03:07:31;15.00;99.90
20345;DHT22;10330;48.816;9.278;2023-08-06T03:10:05;15.10;99.90
20345;DHT22;10330;48.816;9.278;2023-08-06T03:12:31;15.10;99.90
20345;DHT22;10330;48.816;9.278;2023-08-06T03:14:59;15.20;99.90
20345;DHT22;10330;48.816;9.278;2023-08-06T03:17:26;15.10;99.90
20345;DHT22;10330;48.816;9.278;2023-08-06T03:19:53;15.10;99.90
20345;DHT22;10330;48.816;9.278;2023-08-06T03:22:19;15.20;99.90
20345;DHT22;10330;48.816;9.278;2023-08-06T03:24:45;15.20;99.90
20345;DHT22;10330;48.816;9.278;2023-08-06T03:27:13;15.20;99.90
20345;DHT22;10330;48.816;9.278;2023-08-06T03:29:41;15.20;99.90
20345;DHT22;10330;48.816;9.278;2023-08-06T03:32:08;15.20;99.90
20345;DHT22;10330;48.816;9.278;2023-08-06T03:34:34;15.10;99.90
20345;DHT22;10330;48.816;9.278;2023-08-06T03:37:01;15.20;99.90
20345;DHT22;10330;48.816;9.278;2023-08-06T03:39:27;15.20;99.90
20345;DHT22;10330;48.816;9.278;2023-08-06T03:41:53;15.20;99.90
20345;DHT22;10330;48.816;9.278;2023-08-06T03:44:20;15.10;99.90
20345;DHT22;10330;48.816;9.278;2023-08-06T03:46:47;15.10;99.90
20345;DHT22;10330;48.816;9.278;2023-08-06T03:49:13;15.10;99.90
20345;DHT22;10330;48.816;9.278;2023-08-06T03:51:40;15.00;99.90
20345;DHT22;10330;48.816;9.278;2023-08-06T03:54:07;15.00;99.90
20345;DHT22;10330;48.816;9.278;2023-08-06T03:56:33;15.10;99.90
20345;DHT22;10330;48.816;9.278;2023-08-06T03:58:59;15.00;99.90
20345;DHT22;10330;48.816;9.278;2023-08-06T04:01:26;15.00;99.90
20345;DHT22;10330;48.816;9.278;2023-08-06T04:03:53;15.00;99.90
20345;DHT22;10330;48.816;9.278;2023-08-06T04:06:19;15.00;99.90
20345;DHT22;10330;48.816;9.278;2023-08-06T04:08:45;15.00;99.90
20345;DHT22;10330;48.816;9.278;2023-08-06T04:11:11;15.00;99.90
20345;DHT22;10330;48.816;9.278;2023-08-06T04:13:44;15.00;99.90
20345;DHT22;10330;48.816;9.278;2023-08-06T04:16:11;14.90;99.90
20345;DHT22;10330;48.816;9.278;2023-08-06T04:18:37;14.90;99.90
20345;DHT22;10330;48.816;9.278;2023-08-06T04:21:03;14.90;99.90
20345;DHT22;10330;48.816;9.278;2023-08-06T04:23:29;14.90;99.90
20345;DHT22;10330;48.816;9.278;2023-08-06T04:26:00;14.90;99.90
20345;DHT22;10330;48.816;9.278;2023-08-06T04:28:30;14.80;99.90
20345;DHT22;10330;48.816;9.278;2023-08-06T04:30:58;14.80;99.90
20345;DHT22;10330;48.816;9.278;2023-08-06T04:33:25;14.80;99.90
20345;DHT22;10330;48.816;9.278;2023-08-06T04:35:55;14.80;99.90
20345;DHT22;10330;48.816;9.278;2023-08-06T04:38:25;14.80;99.90
20345;DHT22;10330;48.816;9.278;2023-08-06T04:40:52;14.80;99.90
20345;DHT22;10330;48.816;9.278;2023-08-06T04:43:20;14.80;99.90
20345;DHT22;10330;48.816;9.278;2023-08-06T04:45:50;14.80;99.90
20345;DHT22;10330;48.816;9.278;2023-08-06T04:48:17;14.80;99.90
20345;DHT22;10330;48.816;9.278;2023-08-06T04:50:47;14.80;99.90
20345;DHT22;10330;48.816;9.278;2023-08-06T04:53:14;14.80;99.90
20345;DHT22;10330;48.816;9.278;2023-08-06T04:55:40;14.80;99.90
20345;DHT22;10330;48.816;9.278;2023-08-06T04:58:07;14.80;99.90
20345;DHT22;10330;48.816;9.278;2023-08-06T05:00:33;14.80;99.90
20345;DHT22;10330;48.816;9.278;2023-08-06T05:03:00;14.70;99.90
20345;DHT22;10330;48.816;9.278;2023-08-06T05:05:27;14.80;99.90
20345;DHT22;10330;48.816;9.278;2023-08-06T05:07:54;14.80;99.90
20345;DHT22;10330;48.816;9.278;2023-08-06T05:10:20;14.90;99.90
20345;DHT22;10330;48.816;9.278;2023-08-06T05:12:46;14.80;99.90
20345;DHT22;10330;48.816;9.278;2023-08-06T05:15:13;14.80;99.90
20345;DHT22;10330;48.816;9.278;2023-08-06T05:17:39;14.90;99.90
20345;DHT22;10330;48.816;9.278;2023-08-06T05:20:05;14.90;99.90
20345;DHT22;10330;48.816;9.278;2023-08-06T05:22:32;15.00;99.90
20345;DHT22;10330;48.816;9.278;2023-08-06T05:24:58;15.10;99.90
20345;DHT22;10330;48.816;9.278;2023-08-06T05:27:24;15.10;99.90
20345;DHT22;10330;48.816;9.278;2023-08-06T05:29:50;15.10;99.90
20345;DHT22;10330;48.816;9.278;2023-08-06T05:32:20;15.10;99.90
20345;DHT22;10330;48.816;9.278;2023-08-06T05:34:46;15.20;99.90
20345;DHT22;10330;48.816;9.278;2023-08-06T05:37:12;15.20;99.90
20345;DHT22;10330;48.816;9.278;2023-08-06T05:39:39;15.30;99.90
20345;DHT22;10330;48.816;9.278;2023-08-06T05:42:05;15.30;99.90
20345;DHT22;10330;48.816;9.278;2023-08-06T05:44:31;15.50;99.90
20345;DHT22;10330;48.816;9.278;2023-08-06T05:46:57;15.50;99.90
20345;DHT22;10330;48.816;9.278;2023-08-06T05:49:26;15.60;99.90
20345;DHT22;10330;48.816;9.278;2023-08-06T05:51:52;15.60;99.90
20345;DHT22;10330;48.816;9.278;2023-08-06T05:54:21;15.70;99.90
20345;DHT22;10330;48.816;9.278;2023-08-06T05:56:47;15.80;99.90
20345;DHT22;10330;48.816;9.278;2023-08-06T05:59:13;15.70;99.90
20345;DHT22;10330;48.816;9.278;2023-08-06T06:01:39;15.70;99.90
20345;DHT22;10330;48.816;9.278;2023-08-06T06:04:05;15.70;99.90
20345;DHT22;10330;48.816;9.278;2023-08-06T06:06:31;15.80;99.90
20345;DHT22;10330;48.816;9.278;2023-08-06T06:08:58;15.70;99.90
20345;DHT22;10330;48.816;9.278;2023-08-06T06:11:24;15.70;99.90
20345;DHT22;10330;48.816;9.278;2023-08-06T06:13:51;15.60;99.90
20345;DHT22;10330;48.816;9.278;2023-08-06T06:16:18;15.50;99.90
20345;DHT22;10330;48.816;9.278;2023-08-06T06:18:44;15.60;99.90
20345;DHT22;10330;48.816;9.278;2023-08-06T06:21:10;15.50;99.90
20345;DHT22;10330;48.816;9.278;2023-08-06T06:23:37;15.50;99.90
20345;DHT22;10330;48.816;9.278;2023-08-06T06:26:03;15.40;99.90
20345;DHT22;10330;48.816;9.278;2023-08-06T06:28:29;15.30;99.90
20345;DHT22;10330;48.816;9.278;2023-08-06T06:31:02;15.20;99.90
20345;DHT22;10330;48.816;9.278;2023-08-06T06:33:29;15.10;99.90
20345;DHT22;10330;48.816;9.278;2023-08-06T06:35:55;15.10;99.90
20345;DHT22;10330;48.816;9.278;2023-08-06T06:38:21;15.10;99.90
20345;DHT22;10330;48.816;9.278;2023-08-06T06:40:55;15.10;99.90
20345;DHT22;10330;48.816;9.278;2023-08-06T06:43:22;15.10;99.90
20345;DHT22;10330;48.816;9.278;2023-08-06T06:45:53;15.10;99.90
20345;DHT22;10330;48.816;9.278;2023-08-06T06:48:19;15.20;99.90
20345;DHT22;10330;48.816;9.278;2023-08-06T06:50:49;15.20;99.90
20345;DHT22;10330;48.816;9.278;2023-08-06T06:53:15;15.20;99.90
20345;DHT22;10330;48.816;9.278;2023-08-06T06:55:41;15.30;99.90
20345;DHT22;10330;48.816;9.278;2023-08-06T06:58:07;15.30;99.90
20345;DHT22;10330;48.816;9.278;2023-08-06T07:00:36;15.30;99.90
20345;DHT22;10330;48.816;9.278;2023-08-06T07:03:03;15.30;99.90
20345;DHT22;10330;48.816;9.278;2023-08-06T07:05:29;15.40;99.90
20345;DHT22;10330;48.816;9.278;2023-08-06T07:07:55;15.30;99.90
20345;DHT22;10330;48.816;9.278;2023-08-06T07:10:21;15.30;99.90
20345;DHT22;10330;48.816;9.278;2023-08-06T07:12:48;15.40;99.90
20345;DHT22;10330;48.816;9.278;2023-08-06T07:15:14;15.30;99.90
20345;DHT22;10330;48.816;9.278;2023-08-06T07:17:40;15.30;99.90
20345;DHT22;10330;48.816;9.278;2023-08-06T07:20:07;15.30;99.90
20345;DHT22;10330;48.816;9.278;2023-08-06T07:22:33;15.20;99.90
20345;DHT22;10330;48.816;9.278;2023-08-06T07:24:59;15.10;99.90
20345;DHT22;10330;48.816;9.278;2023-08-06T07:27:25;15.10;99.90
20345;DHT22;10330;48.816;9.278;2023-08-06T07:29:52;15.00;99.90
20345;DHT22;10330;48.816;9.278;2023-08-06T07:32:18;15.00;99.90
20345;DHT22;10330;48.816;9.278;2023-08-06T07:34:44;15.10;99.90
20345;DHT22;10330;48.816;9.278;2023-08-06T07:37:10;15.10;99.90
20345;DHT22;10330;48.816;9.278;2023-08-06T07:39:37;15.00;99.90
20345;DHT22;10330;48.816;9.278;2023-08-06T07:42:05;15.00;99.90
20345;DHT22;10330;48.816;9.278;2023-08-06T07:44:33;14.90;99.90
20345;DHT22;10330;48.816;9.278;2023-08-06T07:46:59;14.90;99.90
20345;DHT22;10330;48.816;9.278;2023-08-06T07:49:26;14.90;99.90
20345;DHT22;10330;48.816;9.278;2023-08-06T07:51:52;14.80;99.90
20345;DHT22;10330;48.816;9.278;2023-08-06T07:54:19;14.80;99.90
20345;DHT22;10330;48.816;9.278;2023-08-06T07:56:45;14.80;99.90
20345;DHT22;10330;48.816;9.278;2023-08-06T07:59:11;14.90;99.90
20345;DHT22;10330;48.816;9.278;2023-08-06T08:01:38;15.00;99.90
20345;DHT22;10330;48.816;9.278;2023-08-06T08:04:04;15.10;99.90
20345;DHT22;10330;48.816;9.278;2023-08-06T08:06:31;15.10;99.90
20345;DHT22;10330;48.816;9.278;2023-08-06T08:08:57;15.10;99.90
20345;DHT22;10330;48.816;9.278;2023-08-06T08:11:23;15.10;99.90
20345;DHT22;10330;48.816;9.278;2023-08-06T08:13:49;15.20;99.90
20345;DHT22;10330;48.816;9.278;2023-08-06T08:16:15;15.30;99.90
20345;DHT22;10330;48.816;9.278;2023-08-06T08:18:42;15.40;99.90
20345;DHT22;10330;48.816;9.278;2023-08-06T08:21:08;15.30;99.90
20345;DHT22;10330;48.816;9.278;2023-08-06T08:23:34;15.50;99.90
20345;DHT22;10330;48.816;9.278;2023-08-06T08:26:00;15.50;99.90
20345;DHT22;10330;48.816;9.278;2023-08-06T08:28:32;15.60;99.90
20345;DHT22;10330;48.816;9.278;2023-08-06T08:30:58;15.80;99.90
20345;DHT22;10330;48.816;9.278;2023-08-06T08:33:24;16.00;99.90
20345;DHT22;10330;48.816;9.278;2023-08-06T08:35:50;16.20;99.90
20345;DHT22;10330;48.816;9.278;2023-08-06T08:38:16;16.20;99.90
20345;DHT22;10330;48.816;9.278;2023-08-06T08:40:46;16.20;99.90
20345;DHT22;10330;48.816;9.278;2023-08-06T08:43:18;16.10;99.90
20345;DHT22;10330;48.816;9.278;2023-08-06T08:45:50;16.30;99.90
20345;DHT22;10330;48.816;9.278;2023-08-06T08:48:16;16.40;99.90
20345;DHT22;10330;48.816;9.278;2023-08-06T08:50:47;16.30;99.90
20345;DHT22;10330;48.816;9.278;2023-08-06T08:53:15;16.30;99.90
20345;DHT22;10330;48.816;9.278;2023-08-06T08:55:48;16.40;99.90
20345;DHT22;10330;48.816;9.278;2023-08-06T08:58:15;16.70;99.90
20345;DHT22;10330;48.816;9.278;2023-08-06T09:00:45;16.60;99.90
20345;DHT22;10330;48.816;9.278;2023-08-06T09:03:12;16.40;99.90
20345;DHT22;10330;48.816;9.278;2023-08-06T09:05:43;16.30;99.90
20345;DHT22;10330;48.816;9.278;2023-08-06T09:08:11;16.20;99.90
20345;DHT22;10330;48.816;9.278;2023-08-06T09:10:40;15.90;99.90
20345;DHT22;10330;48.816;9.278;2023-08-06T09:13:11;15.70;99.90
20345;DHT22;10330;48.816;9.278;2023-08-06T09:15:38;15.70;99.90
20345;DHT22;10330;48.816;9.278;2023-08-06T09:18:11;15.70;99.90
20345;DHT22;10330;48.816;9.278;2023-08-06T09:20:41;15.70;99.90
20345;DHT22;10330;48.816;9.278;2023-08-06T09:23:08;15.60;99.90
20345;DHT22;10330;48.816;9.278;2023-08-06T09:25:38;15.60;99.90
20345;DHT22;10330;48.816;9.278;2023-08-06T09:28:04;15.80;99.90
20345;DHT22;10330;48.816;9.278;2023-08-06T09:30:32;16.00;99.90
20345;DHT22;10330;48.816;9.278;2023-08-06T09:32:59;16.10;99.90
20345;DHT22;10330;48.816;9.278;2023-08-06T09:35:31;16.20;99.90
20345;DHT22;10330;48.816;9.278;2023-08-06T09:38:08;16.30;99.90
20345;DHT22;10330;48.816;9.278;2023-08-06T09:40:35;16.30;99.90
20345;DHT22;10330;48.816;9.278;2023-08-06T09:43:02;16.20;99.90
20345;DHT22;10330;48.816;9.278;2023-08-06T09:45:34;16.10;99.90
20345;DHT22;10330;48.816;9.278;2023-08-06T09:48:09;16.00;99.90
20345;DHT22;10330;48.816;9.278;2023-08-06T09:50:38;16.00;99.90
20345;DHT22;10330;48.816;9.278;2023-08-06T09:53:06;16.00;99.90
20345;DHT22;10330;48.816;9.278;2023-08-06T09:55:34;16.00;99.90
20345;DHT22;10330;48.816;9.278;2023-08-06T09:58:00;15.90;99.90
20345;DHT22;10330;48.816;9.278;2023-08-06T10:00:27;16.00;99.90
20345;DHT22;10330;48.816;9.278;2023-08-06T10:02:55;16.00;99.90
20345;DHT22;10330;48.816;9.278;2023-08-06T10:05:25;16.00;99.90
20345;DHT22;10330;48.816;9.278;2023-08-06T10:07:53;16.10;99.90
20345;DHT22;10330;48.816;9.278;2023-08-06T10:10:23;16.20;99.90
20345;DHT22;10330;48.816;9.278;2023-08-06T10:12:52;16.20;99.90
20345;DHT22;10330;48.816;9.278;2023-08-06T10:15:23;16.30;99.90
20345;DHT22;10330;48.816;9.278;2023-08-06T10:17:52;16.20;99.90
20345;DHT22;10330;48.816;9.278;2023-08-06T10:20:20;16.30;99.90
20345;DHT22;10330;48.816;9.278;2023-08-06T10:23:06;16.30;99.90
20345;DHT22;10330;48.816;9.278;2023-08-06T10:25:34;16.30;99.90
20345;DHT22;10330;48.816;9.278;2023-08-06T10:28:10;16.50;99.90
20345;DHT22;10330;48.816;9.278;2023-08-06T10:30:47;16.50;99.90
20345;DHT22;10330;48.816;9.278;2023-08-06T10:33:14;16.40;99.90
20345;DHT22;10330;48.816;9.278;2023-08-06T10:40:49;16.00;99.90
20345;DHT22;10330;48.816;9.278;2023-08-06T10:43:46;16.10;99.90
20345;DHT22;10330;48.816;9.278;2023-08-06T10:46:26;16.10;99.90
20345;DHT22;10330;48.816;9.278;2023-08-06T10:48:52;16.20;99.90
20345;DHT22;10330;48.816;9.278;2023-08-06T10:51:19;16.30;99.90
20345;DHT22;10330;48.816;9.278;2023-08-06T10:53:48;16.20;99.90
20345;DHT22;10330;48.816;9.278;2023-08-06T10:56:20;16.40;99.90
20345;DHT22;10330;48.816;9.278;2023-08-06T10:58:51;16.40;99.90
20345;DHT22;10330;48.816;9.278;2023-08-06T11:01:18;16.50;99.90
20345;DHT22;10330;48.816;9.278;2023-08-06T11:03:45;16.40;99.90
20345;DHT22;10330;48.816;9.278;2023-08-06T11:06:20;16.30;99.90
20345;DHT22;10330;48.816;9.278;2023-08-06T11:08:49;16.20;99.90
20345;DHT22;10330;48.816;9.278;2023-08-06T11:11:16;16.00;99.90
20345;DHT22;10330;48.816;9.278;2023-08-06T11:13:44;15.90;99.90
20345;DHT22;10330;48.816;9.278;2023-08-06T11:16:19;15.80;99.90
20345;DHT22;10330;48.816;9.278;2023-08-06T11:18:46;15.70;99.90
20345;DHT22;10330;48.816;9.278;2023-08-06T11:21:13;15.60;99.90
20345;DHT22;10330;48.816;9.278;2023-08-06T11:23:41;15.60;99.90
20345;DHT22;10330;48.816;9.278;2023-08-06T11:26:07;15.80;99.90
20345;DHT22;10330;48.816;9.278;2023-08-06T11:28:33;15.80;99.90
20345;DHT22;10330;48.816;9.278;2023-08-06T11:31:01;15.70;99.90
20345;DHT22;10330;48.816;9.278;2023-08-06T11:33:30;15.60;99.90
20345;DHT22;10330;48.816;9.278;2023-08-06T11:35:59;15.50;99.90
20345;DHT22;10330;48.816;9.278;2023-08-06T11:38:28;15.60;99.90
20345;DHT22;10330;48.816;9.278;2023-08-06T11:40:55;15.40;99.90
20345;DHT22;10330;48.816;9.278;2023-08-06T11:43:22;15.60;99.90
20345;DHT22;10330;48.816;9.278;2023-08-06T11:45:49;15.60;99.90
20345;DHT22;10330;48.816;9.278;2023-08-06T11:48:16;15.60;99.90
20345;DHT22;10330;48.816;9.278;2023-08-06T11:50:46;15.60;99.90
20345;DHT22;10330;48.816;9.278;2023-08-06T11:53:13;15.60;99.90
20345;DHT22;10330;48.816;9.278;2023-08-06T11:55:43;15.60;99.90
20345;DHT22;10330;48.816;9.278;2023-08-06T11:58:10;15.70;99.90
20345;DHT22;10330;48.816;9.278;2023-08-06T12:00:38;15.60;99.90
20345;DHT22;10330;48.816;9.278;2023-08-06T12:03:05;15.50;99.90
20345;DHT22;10330;48.816;9.278;2023-08-06T12:05:32;15.50;99.90
20345;DHT22;10330;48.816;9.278;2023-08-06T12:08:00;15.20;99.90
20345;DHT22;10330;48.816;9.278;2023-08-06T12:10:29;15.00;99.90
20345;DHT22;10330;48.816;9.278;2023-08-06T12:12:55;14.90;99.90
20345;DHT22;10330;48.816;9.278;2023-08-06T12:15:22;14.80;99.90
20345;DHT22;10330;48.816;9.278;2023-08-06T12:17:49;14.70;99.90
20345;DHT22;10330;48.816;9.278;2023-08-06T12:20:16;14.70;99.90
20345;DHT22;10330;48.816;9.278;2023-08-06T12:22:42;14.50;99.90
20345;DHT22;10330;48.816;9.278;2023-08-06T12:25:10;14.50;99.90
20345;DHT22;10330;48.816;9.278;2023-08-06T12:27:44;14.50;99.90
20345;DHT22;10330;48.816;9.278;2023-08-06T12:30:11;14.50;99.90
20345;DHT22;10330;48.816;9.278;2023-08-06T12:32:38;14.40;99.90
20345;DHT22;10330;48.816;9.278;2023-08-06T12:35:05;14.50;99.90
20345;DHT22;10330;48.816;9.278;2023-08-06T12:37:33;14.60;99.90
20345;DHT22;10330;48.816;9.278;2023-08-06T12:39:59;14.70;99.90
20345;DHT22;10330;48.816;9.278;2023-08-06T12:42:28;14.70;99.90
20345;DHT22;10330;48.816;9.278;2023-08-06T12:44:57;14.80;99.90
20345;DHT22;10330;48.816;9.278;2023-08-06T12:47:30;14.90;99.90
20345;DHT22;10330;48.816;9.278;2023-08-06T12:49:56;15.00;99.90
20345;DHT22;10330;48.816;9.278;2023-08-06T12:52:22;15.10;99.90
20345;DHT22;10330;48.816;9.278;2023-08-06T12:54:49;15.30;99.90
20345;DHT22;10330;48.816;9.278;2023-08-06T12:57:15;15.40;99.90
20345;DHT22;10330;48.816;9.278;2023-08-06T12:59:43;15.50;99.90
20345;DHT22;10330;48.816;9.278;2023-08-06T13:02:09;15.50;99.90
20345;DHT22;10330;48.816;9.278;2023-08-06T13:04:38;15.60;99.90
20345;DHT22;10330;48.816;9.278;2023-08-06T13:07:37;15.60;99.90
20345;DHT22;10330;48.816;9.278;2023-08-06T13:10:04;15.70;99.90
20345;DHT22;10330;48.816;9.278;2023-08-06T13:12:53;15.70;99.90
20345;DHT22;10330;48.816;9.278;2023-08-06T13:15:38;15.80;99.90
20345;DHT22;10330;48.816;9.278;2023-08-06T13:18:05;15.80;99.90
20345;DHT22;10330;48.816;9.278;2023-08-06T13:20:31;15.80;99.90
20345;DHT22;10330;48.816;9.278;2023-08-06T13:22:58;16.00;99.90
20345;DHT22;10330;48.816;9.278;2023-08-06T13:25:27;16.10;99.90
20345;DHT22;10330;48.816;9.278;2023-08-06T13:27:54;16.10;99.90
20345;DHT22;10330;48.816;9.278;2023-08-06T13:30:21;16.00;99.90
20345;DHT22;10330;48.816;9.278;2023-08-06T13:32:49;16.00;99.90
20345;DHT22;10330;48.816;9.278;2023-08-06T13:35:15;16.10;99.90
20345;DHT22;10330;48.816;9.278;2023-08-06T13:37:44;16.20;99.90
20345;DHT22;10330;48.816;9.278;2023-08-06T13:40:36;16.40;99.90
20345;DHT22;10330;48.816;9.278;2023-08-06T13:43:02;16.40;99.90
20345;DHT22;10330;48.816;9.278;2023-08-06T13:45:28;16.40;99.90
20345;DHT22;10330;48.816;9.278;2023-08-06T13:47:57;16.30;99.90
20345;DHT22;10330;48.816;9.278;2023-08-06T13:50:23;16.20;99.90
20345;DHT22;10330;48.816;9.278;2023-08-06T13:52:51;16.30;99.90
20345;DHT22;10330;48.816;9.278;2023-08-06T13:55:19;16.40;99.90
20345;DHT22;10330;48.816;9.278;2023-08-06T13:57:45;16.50;99.90
20345;DHT22;10330;48.816;9.278;2023-08-06T14:00:12;16.50;99.90
20345;DHT22;10330;48.816;9.278;2023-08-06T14:02:42;16.50;99.90
20345;DHT22;10330;48.816;9.278;2023-08-06T14:05:10;16.40;99.90
20345;DHT22;10330;48.816;9.278;2023-08-06T14:07:36;16.30;99.90
20345;DHT22;10330;48.816;9.278;2023-08-06T14:10:02;16.30;99.90
20345;DHT22;10330;48.816;9.278;2023-08-06T14:12:29;16.20;99.90
20345;DHT22;10330;48.816;9.278;2023-08-06T14:14:55;16.10;99.90
20345;DHT22;10330;48.816;9.278;2023-08-06T14:17:21;16.00;99.90
20345;DHT22;10330;48.816;9.278;2023-08-06T14:19:47;15.80;99.90
20345;DHT22;10330;48.816;9.278;2023-08-06T14:22:13;15.70;99.90
20345;DHT22;10330;48.816;9.278;2023-08-06T14:24:40;15.60;99.90
20345;DHT22;10330;48.816;9.278;2023-08-06T14:27:06;15.50;99.90
20345;DHT22;10330;48.816;9.278;2023-08-06T14:29:32;15.50;99.90
20345;DHT22;10330;48.816;9.278;2023-08-06T14:31:59;15.70;99.90
20345;DHT22;10330;48.816;9.278;2023-08-06T14:34:25;15.90;99.90
20345;DHT22;10330;48.816;9.278;2023-08-06T14:36:51;15.90;99.90
20345;DHT22;10330;48.816;9.278;2023-08-06T14:39:17;16.00;99.90
20345;DHT22;10330;48.816;9.278;2023-08-06T14:41:43;16.20;99.90
20345;DHT22;10330;48.816;9.278;2023-08-06T14:44:12;16.30;99.90
20345;DHT22;10330;48.816;9.278;2023-08-06T14:46:38;16.30;99.90
20345;DHT22;10330;48.816;9.278;2023-08-06T14:49:04;16.40;99.90
20345;DHT22;10330;48.816;9.278;2023-08-06T14:51:31;16.30;99.90
20345;DHT22;10330;48.816;9.278;2023-08-06T14:54:02;16.30;99.90
20345;DHT22;10330;48.816;9.278;2023-08-06T14:56:28;16.20;99.90
20345;DHT22;10330;48.816;9.278;2023-08-06T14:58:55;16.20;99.90
20345;DHT22;10330;48.816;9.278;2023-08-06T15:01:21;16.30;99.90
20345;DHT22;10330;48.816;9.278;2023-08-06T15:03:48;16.20;99.90
20345;DHT22;10330;48.816;9.278;2023-08-06T15:06:16;16.10;99.90
20345;DHT22;10330;48.816;9.278;2023-08-06T15:08:43;16.00;99.90
20345;DHT22;10330;48.816;9.278;2023-08-06T15:11:13;15.90;99.90
20345;DHT22;10330;48.816;9.278;2023-08-06T15:13:40;15.90;99.90
20345;DHT22;10330;48.816;9.278;2023-08-06T15:16:06;15.90;99.90
20345;DHT22;10330;48.816;9.278;2023-08-06T15:18:32;15.90;99.90
20345;DHT22;10330;48.816;9.278;2023-08-06T15:20:58;15.80;99.90
20345;DHT22;10330;48.816;9.278;2023-08-06T15:23:25;15.80;99.90
20345;DHT22;10330;48.816;9.278;2023-08-06T15:25:51;15.80;99.90
20345;DHT22;10330;48.816;9.278;2023-08-06T15:28:17;15.80;99.90
20345;DHT22;10330;48.816;9.278;2023-08-06T15:30:49;15.80;99.90
20345;DHT22;10330;48.816;9.278;2023-08-06T15:33:17;15.90;99.90
20345;DHT22;10330;48.816;9.278;2023-08-06T15:35:43;15.90;99.90
20345;DHT22;10330;48.816;9.278;2023-08-06T15:38:09;16.00;99.90
20345;DHT22;10330;48.816;9.278;2023-08-06T15:40:35;16.00;99.90
20345;DHT22;10330;48.816;9.278;2023-08-06T15:43:02;16.00;99.90
20345;DHT22;10330;48.816;9.278;2023-08-06T15:45:28;16.00;99.90
20345;DHT22;10330;48.816;9.278;2023-08-06T15:47:55;16.00;99.90